Temp: 14.9°C   Hum: 78%
  Wind: 2.0mph   Dir: SSW (204°)
  Rain: 0.6mm Rate: 0.0mm/hr
  Pressure: 1017.8mb

Historic data

Bath Spa Weather Station Historical Data
Daily Summary for May 19, 2022 Units:  Both    English   Metric
Daily Weekly Monthly Yearly Custom
  High: Low: Average:
Temperature: 67 °F /  19.4 °C 49.8 °F /  9.9 °C 57.6 °F /  14.2 °C
Dew Point: 55.4 °F /  13 °C 47.7 °F /  8.7 °C 51.4 °F /  10.8 °C
Humidity: 96% 61.6% 81%
Wind Speed: 8.2mph /  13.2km/h - 2.4mph /  3.9km/h
Wind Gust: 14mph /  22.5km/h - -
Wind- - West
Pressure: 30.16 in /  1021.2 hPa 30.00 in /  1015.8 hPa -
Precipitation: 0.01 in /  0.25 mm    
Historical Graphs
 
 
Tabular Data for May 19, 2022
Time Temperature Dew Point Pressure Wind Wind Speed Wind Gust Humidity Rainfall Rate (Hourly) solar
00:09 53.9 °F /  12.2 °C 52.2 °F /  11.2 °C 30.00in /  1015.8hPa WNW 2.4mph /  3.9km/h 4mph /  6.4km/h 94% 0.01in /  0.25mm 0 W/m2
00:14 53.8 °F /  12.1 °C 52.2 °F /  11.2 °C 30.01in /  1016.1hPa WNW 1mph /  1.6km/h 3mph /  4.8km/h 94% 0.01in /  0.25mm 0 W/m2
00:19 53.8 °F /  12.1 °C 52.2 °F /  11.2 °C 30.01in /  1016.1hPa WNW 0.4mph /  0.6km/h 2mph /  3.2km/h 94% 0.01in /  0.25mm 0 W/m2
00:24 53.5 °F /  11.9 °C 51.9 °F /  11.1 °C 30.01in /  1016.1hPa WNW 1.1mph /  1.8km/h 2mph /  3.2km/h 94% 0.01in /  0.25mm 0 W/m2
00:29 53.4 °F /  11.9 °C 51.8 °F /  11 °C 30.01in /  1016.1hPa WNW 0.6mph /  1km/h 2mph /  3.2km/h 94% 0.01in /  0.25mm 0 W/m2
00:34 53.4 °F /  11.9 °C 51.8 °F /  11 °C 30.01in /  1016.1hPa WNW 0.2mph /  0.3km/h 2mph /  3.2km/h 94% 0.01in /  0.25mm 0 W/m2
00:39 53.4 °F /  11.9 °C 51.8 °F /  11 °C 30.01in /  1016.1hPa Calm   1mph /  1.6km/h 94% 0.01in /  0.25mm 0 W/m2
00:44 53.2 °F /  11.8 °C 51.6 °F /  10.9 °C 30.01in /  1016.1hPa Calm     94% 0.01in /  0.25mm 0 W/m2
00:49 53.2 °F /  11.8 °C 51.6 °F /  10.9 °C 30.01in /  1016.1hPa WNW 0.5mph /  0.8km/h 1mph /  1.6km/h 94% 0.01in /  0.25mm 0 W/m2
00:54 53.2 °F /  11.8 °C 51.6 °F /  10.9 °C 30.01in /  1016.1hPa WNW 0.2mph /  0.3km/h 1mph /  1.6km/h 94% 0.01in /  0.25mm 0 W/m2
00:59 53.2 °F /  11.8 °C 51.6 °F /  10.9 °C 30.01in /  1016.1hPa WNW 0.5mph /  0.8km/h 1mph /  1.6km/h 94% 0.01in /  0.25mm 0 W/m2
01:04 53.2 °F /  11.8 °C 51.6 °F /  10.9 °C 30.01in /  1016.1hPa Calm   1mph /  1.6km/h 94% 0.01in /  0.25mm 0 W/m2
01:09 53.2 °F /  11.8 °C 51.6 °F /  10.9 °C 30.01in /  1016.1hPa Calm     94% 0.00in /  0mm 0 W/m2
01:14 53.1 °F /  11.7 °C 51.4 °F /  10.8 °C 30.01in /  1016.1hPa Calm     94% 0.00in /  0mm 0 W/m2
01:19 53.1 °F /  11.7 °C 51.4 °F /  10.8 °C 30.02in /  1016.5hPa Calm     94% 0.00in /  0mm 0 W/m2
01:24 52.9 °F /  11.6 °C 51.3 °F /  10.7 °C 30.02in /  1016.5hPa Calm     94% 0.00in /  0mm 0 W/m2
01:29 52.9 °F /  11.6 °C 51.3 °F /  10.7 °C 30.02in /  1016.5hPa Calm     94% 0.00in /  0mm 0 W/m2
01:34 52.9 °F /  11.6 °C 51.3 °F /  10.7 °C 30.02in /  1016.5hPa Calm     94% 0.00in /  0mm 0 W/m2
01:39 52.9 °F /  11.6 °C 51.3 °F /  10.7 °C 30.02in /  1016.5hPa Calm     94% 0.00in /  0mm 0 W/m2
01:44 52.9 °F /  11.6 °C 51.3 °F /  10.7 °C 30.02in /  1016.5hPa Calm     94% 0.00in /  0mm 0 W/m2
01:49 52.9 °F /  11.6 °C 51.3 °F /  10.7 °C 30.02in /  1016.5hPa Calm     94% 0.00in /  0mm 0 W/m2
01:54 52.7 °F /  11.5 °C 51.1 °F /  10.6 °C 30.02in /  1016.5hPa Calm     94% 0.00in /  0mm 0 W/m2
01:59 52.5 °F /  11.4 °C 50.9 °F /  10.5 °C 30.03in /  1016.8hPa Calm     94% 0.00in /  0mm 0 W/m2
02:04 52.4 °F /  11.3 °C 50.8 °F /  10.4 °C 30.03in /  1016.8hPa Calm     94% 0.00in /  0mm 0 W/m2
02:09 52.3 °F /  11.3 °C 50.7 °F /  10.4 °C 30.03in /  1016.8hPa Calm     94% 0.00in /  0mm 0 W/m2
02:14 52.2 °F /  11.2 °C 50.6 °F /  10.3 °C 30.03in /  1016.8hPa Calm     94% 0.00in /  0mm 0 W/m2
02:19 52.2 °F /  11.2 °C 50.5 °F /  10.3 °C 30.03in /  1016.8hPa Calm     94% 0.00in /  0mm 0 W/m2
02:24 52.1 °F /  11.2 °C 50.4 °F /  10.2 °C 30.03in /  1016.8hPa Calm     94% 0.00in /  0mm 0 W/m2
02:29 52.1 °F /  11.2 °C 50.5 °F /  10.3 °C 30.03in /  1016.8hPa Calm     94% 0.00in /  0mm 0 W/m2
02:34 52 °F /  11.1 °C 50.3 °F /  10.2 °C 30.03in /  1016.8hPa Calm     94% 0.00in /  0mm 0 W/m2
02:39 51.8 °F /  11 °C 50.2 °F /  10.1 °C 30.03in /  1016.8hPa Calm     94% 0.00in /  0mm 0 W/m2
02:44 51.6 °F /  10.9 °C 50 °F /  10 °C 30.03in /  1016.8hPa Calm     94% 0.00in /  0mm 0 W/m2
02:49 51.6 °F /  10.9 °C 50 °F /  10 °C 30.03in /  1016.8hPa Calm     94% 0.00in /  0mm 0 W/m2
02:54 51.6 °F /  10.9 °C 50.1 °F /  10.1 °C 30.03in /  1016.8hPa Calm     94.6% 0.00in /  0mm 0 W/m2
02:59 51.6 °F /  10.9 °C 50.2 °F /  10.1 °C 30.03in /  1016.8hPa Calm     95% 0.00in /  0mm 0 W/m2
03:04 51.6 °F /  10.9 °C 50.2 °F /  10.1 °C 30.03in /  1016.8hPa Calm     95% 0.00in /  0mm 0 W/m2
03:09 51.4 °F /  10.8 °C 50 °F /  10 °C 30.03in /  1016.8hPa Calm     95% 0.00in /  0mm 0 W/m2
03:14 51.4 °F /  10.8 °C 50 °F /  10 °C 30.03in /  1016.8hPa Calm     95% 0.00in /  0mm 0 W/m2
03:19 51.4 °F /  10.8 °C 50 °F /  10 °C 30.03in /  1016.8hPa WNW 2.2mph /  3.5km/h 3mph /  4.8km/h 95% 0.00in /  0mm 0 W/m2
03:24 51.3 °F /  10.7 °C 49.8 °F /  9.9 °C 30.03in /  1016.8hPa WNW 1.8mph /  2.9km/h 3mph /  4.8km/h 95% 0.00in /  0mm 0 W/m2
03:29 51.2 °F /  10.7 °C 49.7 °F /  9.8 °C 30.03in /  1016.8hPa WNW 2.4mph /  3.9km/h 3mph /  4.8km/h 95% 0.00in /  0mm 0 W/m2
03:34 51.1 °F /  10.6 °C 49.6 °F /  9.8 °C 30.03in /  1016.8hPa WNW 1.8mph /  2.9km/h 3mph /  4.8km/h 95% 0.00in /  0mm 0 W/m2
03:39 50.8 °F /  10.4 °C 49.4 °F /  9.7 °C 30.03in /  1016.8hPa WNW 1.7mph /  2.7km/h 3mph /  4.8km/h 95% 0.00in /  0mm 0 W/m2
03:44 50.4 °F /  10.2 °C 49 °F /  9.4 °C 30.03in /  1016.8hPa WNW 1.5mph /  2.4km/h 3mph /  4.8km/h 95% 0.00in /  0mm 0 W/m2
03:49 50.3 °F /  10.2 °C 48.8 °F /  9.3 °C 30.03in /  1016.8hPa WNW 0.2mph /  0.3km/h 1mph /  1.6km/h 95% 0.00in /  0mm 0 W/m2
03:54 50.2 °F /  10.1 °C 48.7 °F /  9.3 °C 30.03in /  1016.8hPa Calm     95% 0.00in /  0mm 0 W/m2
03:59 50.2 °F /  10.1 °C 48.7 °F /  9.3 °C 30.03in /  1016.8hPa Calm     95% 0.00in /  0mm 0 W/m2
04:04 50.2 °F /  10.1 °C 48.7 °F /  9.3 °C 30.03in /  1016.8hPa Calm     95% 0.00in /  0mm 0 W/m2
04:09 50.2 °F /  10.1 °C 48.7 °F /  9.3 °C 30.03in /  1016.8hPa Calm     95% 0.00in /  0mm 0 W/m2
04:14 50.4 °F /  10.2 °C 48.9 °F /  9.4 °C 30.03in /  1016.8hPa Calm     95% 0.00in /  0mm 0 W/m2
04:19 50.4 °F /  10.2 °C 48.9 °F /  9.4 °C 30.03in /  1016.8hPa Calm     95% 0.00in /  0mm 0 W/m2
04:24 50.5 °F /  10.3 °C 49 °F /  9.4 °C 30.03in /  1016.8hPa Calm     95% 0.00in /  0mm 0 W/m2
04:29 50.5 °F /  10.3 °C 49.1 °F /  9.5 °C 30.03in /  1016.8hPa WNW 0.2mph /  0.3km/h 2mph /  3.2km/h 95% 0.00in /  0mm 0 W/m2
04:34 50.5 °F /  10.3 °C 49.1 °F /  9.5 °C 30.03in /  1016.8hPa WNW 1.3mph /  2.1km/h 2mph /  3.2km/h 95% 0.00in /  0mm 0 W/m2
04:39 50.4 °F /  10.2 °C 49 °F /  9.4 °C 30.03in /  1016.8hPa WNW 0.4mph /  0.6km/h 2mph /  3.2km/h 95% 0.00in /  0mm 0 W/m2
04:44 50.4 °F /  10.2 °C 48.9 °F /  9.4 °C 30.03in /  1016.8hPa WNW 0.2mph /  0.3km/h 1mph /  1.6km/h 95% 0.00in /  0mm 0 W/m2
04:49 50.4 °F /  10.2 °C 48.9 °F /  9.4 °C 30.03in /  1016.8hPa Calm   1mph /  1.6km/h 95% 0.00in /  0mm 0 W/m2
04:54 50.3 °F /  10.2 °C 48.8 °F /  9.3 °C 30.03in /  1016.8hPa Calm     95% 0.00in /  0mm 0 W/m2
04:59 50.2 °F /  10.1 °C 48.7 °F /  9.3 °C 30.03in /  1016.8hPa Calm     95% 0.00in /  0mm 0 W/m2
05:04 50.2 °F /  10.1 °C 48.7 °F /  9.3 °C 30.03in /  1016.8hPa Calm   1mph /  1.6km/h 95% 0.00in /  0mm 0 W/m2
05:09 50.2 °F /  10.1 °C 48.7 °F /  9.3 °C 30.03in /  1016.8hPa Calm     95% 0.00in /  0mm 0 W/m2
05:14 50.4 °F /  10.2 °C 48.9 °F /  9.4 °C 30.03in /  1016.8hPa WNW 0.4mph /  0.6km/h 1mph /  1.6km/h 95% 0.00in /  0mm 0 W/m2
05:19 50.3 °F /  10.2 °C 48.8 °F /  9.3 °C 30.03in /  1016.8hPa WNW 1.1mph /  1.8km/h 2mph /  3.2km/h 95% 0.00in /  0mm 0 W/m2
05:24 50.2 °F /  10.1 °C 48.7 °F /  9.3 °C 30.03in /  1016.8hPa WNW 0.2mph /  0.3km/h 2mph /  3.2km/h 95% 0.00in /  0mm 9 W/m2
05:29 50 °F /  10 °C 48.6 °F /  9.2 °C 30.03in /  1016.8hPa Calm     95% 0.00in /  0mm 9 W/m2
05:34 49.9 °F /  9.9 °C 48.5 °F /  9.2 °C 30.03in /  1016.8hPa Calm     95% 0.00in /  0mm 12 W/m2
05:39 49.8 °F /  9.9 °C 48.4 °F /  9.1 °C 30.03in /  1016.8hPa Calm     95% 0.00in /  0mm 14 W/m2
05:44 49.9 °F /  9.9 °C 48.5 °F /  9.2 °C 30.03in /  1016.8hPa Calm     95% 0.00in /  0mm 16 W/m2
05:49 49.8 °F /  9.9 °C 48.4 °F /  9.1 °C 30.03in /  1016.8hPa Calm     95% 0.00in /  0mm 16 W/m2
05:54 49.8 °F /  9.9 °C 48.4 °F /  9.1 °C 30.03in /  1016.8hPa Calm     95% 0.00in /  0mm 16 W/m2
06:04 49.8 °F /  9.9 °C 48.4 °F /  9.1 °C 30.04in /  1017.2hPa Calm     95% 0.00in /  0mm 25 W/m2
06:08 49.9 °F /  9.9 °C 48.5 °F /  9.2 °C 30.04in /  1017.2hPa Calm   1mph /  1.6km/h 95% 0.00in /  0mm 30 W/m2
06:14 50.1 °F /  10.1 °C 48.7 °F /  9.3 °C 30.04in /  1017.2hPa WNW 0.2mph /  0.3km/h 1mph /  1.6km/h 95% 0.00in /  0mm 47 W/m2
06:19 50.2 °F /  10.1 °C 48.7 °F /  9.3 °C 30.04in /  1017.2hPa Calm     95% 0.00in /  0mm 58 W/m2
06:24 50.3 °F /  10.2 °C 48.8 °F /  9.3 °C 30.04in /  1017.2hPa Calm     95% 0.00in /  0mm 60 W/m2
06:29 50.4 °F /  10.2 °C 49.1 °F /  9.5 °C 30.05in /  1017.5hPa Calm     95.6% 0.00in /  0mm 60 W/m2
06:34 50.4 °F /  10.2 °C 49.3 °F /  9.6 °C 30.06in /  1017.8hPa WNW 0.4mph /  0.6km/h 2mph /  3.2km/h 96% 0.00in /  0mm 51 W/m2
06:39 50.4 °F /  10.2 °C 49.3 °F /  9.6 °C 30.06in /  1017.8hPa Calm   1mph /  1.6km/h 96% 0.00in /  0mm 46 W/m2
06:44 50.4 °F /  10.2 °C 49.3 °F /  9.6 °C 30.06in /  1017.8hPa Calm   1mph /  1.6km/h 96% 0.00in /  0mm 53 W/m2
06:49 50.5 °F /  10.3 °C 49.5 °F /  9.7 °C 30.06in /  1017.8hPa Calm   1mph /  1.6km/h 96% 0.00in /  0mm 54 W/m2
06:54 50.7 °F /  10.4 °C 49.6 °F /  9.8 °C 30.06in /  1017.8hPa Calm     96% 0.00in /  0mm 86 W/m2
06:59 51.3 °F /  10.7 °C 50.3 °F /  10.2 °C 30.06in /  1017.8hPa Calm     96% 0.00in /  0mm 97 W/m2
07:04 52.1 °F /  11.2 °C 51 °F /  10.6 °C 30.06in /  1017.8hPa Calm     96% 0.00in /  0mm 95 W/m2
07:09 52.5 °F /  11.4 °C 51.5 °F /  10.8 °C 30.06in /  1017.8hPa Calm     96% 0.00in /  0mm 86 W/m2
07:14 51.9 °F /  11.1 °C 50.8 °F /  10.4 °C 30.06in /  1017.8hPa Calm     96% 0.00in /  0mm 114 W/m2
07:16 51.6 °F /  10.9 °C 50.5 °F /  10.3 °C 30.06in /  1017.8hPa Calm     96% 0.00in /  0mm 130 W/m2
07:24 51.6 °F /  10.9 °C 50.5 °F /  10.3 °C 30.06in /  1017.8hPa Calm     96% 0.00in /  0mm 134 W/m2
07:29 52 °F /  11.1 °C 50.9 °F /  10.5 °C 30.08in /  1018.5hPa WNW 0.6mph /  1km/h 3mph /  4.8km/h 96% 0.00in /  0mm 141 W/m2
07:34 52 °F /  11.1 °C 50.9 °F /  10.5 °C 30.07in /  1018.2hPa Calm   3mph /  4.8km/h 96% 0.00in /  0mm 165 W/m2
07:36 52 °F /  11.1 °C 50.9 °F /  10.5 °C 30.08in /  1018.5hPa WNW 0.5mph /  0.8km/h 1mph /  1.6km/h 96% 0.00in /  0mm 174 W/m2
07:44 52 °F /  11.1 °C 50.9 °F /  10.5 °C 30.08in /  1018.5hPa WNW 1.2mph /  1.9km/h 2mph /  3.2km/h 96% 0.00in /  0mm 178 W/m2
07:49 52.1 °F /  11.2 °C 51 °F /  10.6 °C 30.08in /  1018.5hPa WNW 0.5mph /  0.8km/h 2mph /  3.2km/h 96% 0.00in /  0mm 378 W/m2
07:54 52.8 °F /  11.6 °C 51.7 °F /  10.9 °C 30.08in /  1018.5hPa WNW 0.4mph /  0.6km/h 2mph /  3.2km/h 96% 0.00in /  0mm 311 W/m2
07:59 52.6 °F /  11.4 °C 51.5 °F /  10.8 °C 30.08in /  1018.5hPa WNW 0.8mph /  1.3km/h 3mph /  4.8km/h 96% 0.00in /  0mm 211 W/m2
08:04 52.9 °F /  11.6 °C 51.8 °F /  11 °C 30.08in /  1018.5hPa Calm   1mph /  1.6km/h 96% 0.00in /  0mm 192 W/m2
08:09 53.3 °F /  11.8 °C 52.3 °F /  11.3 °C 30.08in /  1018.5hPa Calm     96% 0.00in /  0mm 197 W/m2
08:14 54.1 °F /  12.3 °C 53 °F /  11.7 °C 30.08in /  1018.5hPa Calm     96% 0.00in /  0mm 459 W/m2
08:19 54.7 °F /  12.6 °C 53.6 °F /  12 °C 30.08in /  1018.5hPa Calm     96% 0.00in /  0mm 236 W/m2
08:24 54.9 °F /  12.7 °C 53.8 °F /  12.1 °C 30.07in /  1018.2hPa Calm     96% 0.00in /  0mm 475 W/m2
08:29 55.5 °F /  13.1 °C 54.3 °F /  12.4 °C 30.08in /  1018.5hPa Calm     96% 0.00in /  0mm 489 W/m2
08:34 55 °F /  12.8 °C 53.7 °F /  12.1 °C 30.09in /  1018.8hPa WNW 1.2mph /  1.9km/h 5mph /  8km/h 95.2% 0.00in /  0mm 258 W/m2
08:39 54.9 °F /  12.7 °C 53.5 °F /  11.9 °C 30.09in /  1018.8hPa West 2.8mph /  4.5km/h 6mph /  9.7km/h 95% 0.00in /  0mm 265 W/m2
08:44 55 °F /  12.8 °C 53.5 °F /  11.9 °C 30.09in /  1018.8hPa West 2.9mph /  4.7km/h 5mph /  8km/h 95% 0.00in /  0mm 339 W/m2
08:49 55.3 °F /  12.9 °C 53.9 °F /  12.2 °C 30.09in /  1018.8hPa West 2.2mph /  3.5km/h 4mph /  6.4km/h 95% 0.00in /  0mm 318 W/m2
08:54 55.5 °F /  13.1 °C 54 °F /  12.2 °C 30.09in /  1018.8hPa West 3.9mph /  6.3km/h 7mph /  11.3km/h 94.4% 0.00in /  0mm 311 W/m2
08:59 55.6 °F /  13.1 °C 54 °F /  12.2 °C 30.09in /  1018.8hPa West 4.6mph /  7.4km/h 7mph /  11.3km/h 94% 0.00in /  0mm 202 W/m2
09:04 55.6 °F /  13.1 °C 54 °F /  12.2 °C 30.10in /  1019.2hPa West 4.2mph /  6.8km/h 8mph /  12.9km/h 94% 0.00in /  0mm 146 W/m2
09:09 55.2 °F /  12.9 °C 53.5 °F /  11.9 °C 30.10in /  1019.2hPa West 4.2mph /  6.8km/h 8mph /  12.9km/h 93.6% 0.00in /  0mm 148 W/m2
09:14 55 °F /  12.8 °C 53.1 °F /  11.7 °C 30.10in /  1019.2hPa West 2.8mph /  4.5km/h 7mph /  11.3km/h 93% 0.00in /  0mm 125 W/m2
09:19 55.2 °F /  12.9 °C 53.2 °F /  11.8 °C 30.10in /  1019.2hPa West 2mph /  3.2km/h 5mph /  8km/h 93% 0.00in /  0mm 232 W/m2
09:24 55.4 °F /  13 °C 53.2 °F /  11.8 °C 30.10in /  1019.2hPa West 3.1mph /  5km/h 5mph /  8km/h 92.4% 0.00in /  0mm 320 W/m2
09:29 55.8 °F /  13.2 °C 53.5 °F /  11.9 °C 30.11in /  1019.5hPa West 3.7mph /  6km/h 6mph /  9.7km/h 92% 0.00in /  0mm 501 W/m2
09:34 56.1 °F /  13.4 °C 53.7 °F /  12.1 °C 30.11in /  1019.5hPa West 5mph /  8km/h 9mph /  14.5km/h 91.6% 0.00in /  0mm 373 W/m2
09:39 56 °F /  13.3 °C 53.5 °F /  11.9 °C 30.11in /  1019.5hPa WNW 5.4mph /  8.7km/h 11mph /  17.7km/h 91% 0.00in /  0mm 334 W/m2
09:44 56.1 °F /  13.4 °C 53.3 °F /  11.8 °C 30.11in /  1019.5hPa West 4.4mph /  7.1km/h 8mph /  12.9km/h 90.2% 0.00in /  0mm 290 W/m2
09:49 56.2 °F /  13.4 °C 53.1 °F /  11.7 °C 30.11in /  1019.5hPa West 1.7mph /  2.7km/h 5mph /  8km/h 89.4% 0.00in /  0mm 345 W/m2
09:54 56.6 °F /  13.7 °C 53.3 °F /  11.8 °C 30.10in /  1019.2hPa West 4mph /  6.4km/h 7mph /  11.3km/h 88.8% 0.00in /  0mm 506 W/m2
09:59 56.5 °F /  13.6 °C 52.8 °F /  11.6 °C 30.10in /  1019.2hPa West 2.6mph /  4.2km/h 8mph /  12.9km/h 87.4% 0.00in /  0mm 506 W/m2
10:04 57.1 °F /  13.9 °C 52.9 °F /  11.6 °C 30.10in /  1019.2hPa West 1.6mph /  2.6km/h 5mph /  8km/h 85.8% 0.00in /  0mm 742 W/m2
10:09 58.1 °F /  14.5 °C 53.3 °F /  11.8 °C 30.10in /  1019.2hPa West 3.2mph /  5.1km/h 6mph /  9.7km/h 84.2% 0.00in /  0mm 784 W/m2
10:14 58.4 °F /  14.7 °C 53.2 °F /  11.8 °C 30.10in /  1019.2hPa West 1.7mph /  2.7km/h 4mph /  6.4km/h 82.8% 0.00in /  0mm 784 W/m2
10:19 58.3 °F /  14.6 °C 52.6 °F /  11.4 °C 30.11in /  1019.5hPa West 2.1mph /  3.4km/h 4mph /  6.4km/h 81.2% 0.00in /  0mm 729 W/m2
10:24 58.5 °F /  14.7 °C 52.5 °F /  11.4 °C 30.11in /  1019.5hPa West 1.8mph /  2.9km/h 5mph /  8km/h 80.4% 0.00in /  0mm 784 W/m2
10:29 59.2 °F /  15.1 °C 52.6 °F /  11.4 °C 30.11in /  1019.5hPa West 2.1mph /  3.4km/h 5mph /  8km/h 78.8% 0.00in /  0mm 765 W/m2
10:34 59.3 °F /  15.2 °C 52.5 °F /  11.4 °C 30.11in /  1019.5hPa West 4mph /  6.4km/h 8mph /  12.9km/h 78.4% 0.00in /  0mm 840 W/m2
10:39 59.3 °F /  15.2 °C 52.2 °F /  11.2 °C 30.11in /  1019.5hPa West 1.7mph /  2.7km/h 5mph /  8km/h 77.4% 0.00in /  0mm 795 W/m2
10:44 59.8 °F /  15.4 °C 52.6 °F /  11.4 °C 30.11in /  1019.5hPa WSW 2mph /  3.2km/h 6mph /  9.7km/h 77% 0.00in /  0mm 800 W/m2
10:49 60.3 °F /  15.7 °C 51.9 °F /  11.1 °C 30.11in /  1019.5hPa WSW 4.9mph /  7.9km/h 9mph /  14.5km/h 73.8% 0.00in /  0mm 780 W/m2
10:54 60.1 °F /  15.6 °C 51.6 °F /  10.9 °C 30.11in /  1019.5hPa West 3.2mph /  5.1km/h 9mph /  14.5km/h 73.4% 0.00in /  0mm 905 W/m2
10:59 61.1 °F /  16.2 °C 52.5 °F /  11.4 °C 30.11in /  1019.5hPa WNW 3.7mph /  6km/h 7mph /  11.3km/h 73.2% 0.00in /  0mm 942 W/m2
11:04 61.1 °F /  16.2 °C 51.8 °F /  11 °C 30.11in /  1019.5hPa WSW 3.3mph /  5.3km/h 8mph /  12.9km/h 71.6% 0.00in /  0mm 886 W/m2
11:09 60.2 °F /  15.7 °C 51.2 °F /  10.7 °C 30.12in /  1019.9hPa SW 5.6mph /  9km/h 9mph /  14.5km/h 72% 0.00in /  0mm 512 W/m2
11:14 60.5 °F /  15.8 °C 51.9 °F /  11.1 °C 30.12in /  1019.9hPa West 4.4mph /  7.1km/h 9mph /  14.5km/h 73.2% 0.00in /  0mm 1004 W/m2
11:19 61 °F /  16.1 °C 51.3 °F /  10.7 °C 30.12in /  1019.9hPa WNW 5.8mph /  9.3km/h 9mph /  14.5km/h 70.8% 0.00in /  0mm 904 W/m2
11:24 61 °F /  16.1 °C 51.4 °F /  10.8 °C 30.12in /  1019.9hPa WNW 2.6mph /  4.2km/h 8mph /  12.9km/h 71% 0.00in /  0mm 981 W/m2
11:29 60.8 °F /  16 °C 51.5 °F /  10.8 °C 30.12in /  1019.9hPa WNW 5.2mph /  8.4km/h 10mph /  16.1km/h 71.4% 0.00in /  0mm 457 W/m2
11:34 60.3 °F /  15.7 °C 51.5 °F /  10.8 °C 30.12in /  1019.9hPa NW 4.5mph /  7.2km/h 7mph /  11.3km/h 72.4% 0.00in /  0mm 292 W/m2
11:39 60.2 °F /  15.7 °C 51.9 °F /  11.1 °C 30.12in /  1019.9hPa West 4.6mph /  7.4km/h 9mph /  14.5km/h 74% 0.00in /  0mm 1005 W/m2
11:44 61.3 °F /  16.3 °C 52.4 °F /  11.3 °C 30.12in /  1019.9hPa West 5.4mph /  8.7km/h 12mph /  19.3km/h 72.6% 0.00in /  0mm 1005 W/m2
11:49 61.4 °F /  16.3 °C 51.6 °F /  10.9 °C 30.11in /  1019.5hPa West 5.1mph /  8.2km/h 10mph /  16.1km/h 70.2% 0.00in /  0mm 951 W/m2
11:54 62.5 °F /  16.9 °C 51.8 °F /  11 °C 30.11in /  1019.5hPa West 3.9mph /  6.3km/h 10mph /  16.1km/h 68% 0.00in /  0mm 881 W/m2
11:59 62.8 °F /  17.1 °C 51.9 °F /  11.1 °C 30.11in /  1019.5hPa West 5.2mph /  8.4km/h 12mph /  19.3km/h 67.6% 0.00in /  0mm 893 W/m2
12:04 62.8 °F /  17.1 °C 52.6 °F /  11.4 °C 30.11in /  1019.5hPa West 5.5mph /  8.9km/h 10mph /  16.1km/h 69.2% 0.00in /  0mm 1000 W/m2
12:09 63 °F /  17.2 °C 53 °F /  11.7 °C 30.11in /  1019.5hPa West 7.1mph /  11.4km/h 12mph /  19.3km/h 69.6% 0.00in /  0mm 1021 W/m2
12:14 62.4 °F /  16.9 °C 53 °F /  11.7 °C 30.12in /  1019.9hPa West 4.1mph /  6.6km/h 9mph /  14.5km/h 71.4% 0.00in /  0mm 244 W/m2
12:19 61.9 °F /  16.6 °C 52.8 °F /  11.6 °C 30.12in /  1019.9hPa WNW 6.8mph /  10.9km/h 12mph /  19.3km/h 72.6% 0.00in /  0mm 461 W/m2
12:29 61.5 °F /  16.4 °C 52.1 °F /  11.2 °C 30.11in /  1019.5hPa WSW 5mph /  8km/h 12mph /  19.3km/h 71.5% 0.00in /  0mm 947 W/m2
12:34 62 °F /  16.7 °C 53 °F /  11.7 °C 30.11in /  1019.5hPa West 5.8mph /  9.3km/h 12mph /  19.3km/h 72.4% 0.00in /  0mm 990 W/m2
12:39 62.7 °F /  17.1 °C 53 °F /  11.7 °C 30.11in /  1019.5hPa West 3.9mph /  6.3km/h 12mph /  19.3km/h 70.6% 0.00in /  0mm 1041 W/m2
12:44 63 °F /  17.2 °C 53.6 °F /  12 °C 30.11in /  1019.5hPa WNW 6mph /  9.7km/h 12mph /  19.3km/h 71.4% 0.00in /  0mm 1046 W/m2
12:49 62.9 °F /  17.2 °C 53.7 °F /  12.1 °C 30.11in /  1019.5hPa WNW 4.2mph /  6.8km/h 10mph /  16.1km/h 72% 0.00in /  0mm 1072 W/m2
12:54 62.9 °F /  17.2 °C 53.6 °F /  12 °C 30.11in /  1019.5hPa WNW 5mph /  8km/h 10mph /  16.1km/h 71.8% 0.00in /  0mm 257 W/m2
12:59 62.5 °F /  16.9 °C 53.3 °F /  11.8 °C 30.11in /  1019.5hPa WNW 5.8mph /  9.3km/h 10mph /  16.1km/h 71.8% 0.00in /  0mm 345 W/m2
13:04 62.8 °F /  17.1 °C 53.2 °F /  11.8 °C 30.11in /  1019.5hPa West 3.9mph /  6.3km/h 8mph /  12.9km/h 70.8% 0.00in /  0mm 1072 W/m2
13:09 63.3 °F /  17.4 °C 53.7 °F /  12.1 °C 30.11in /  1019.5hPa WSW 5.8mph /  9.3km/h 10mph /  16.1km/h 70.8% 0.00in /  0mm 1042 W/m2
13:14 63.6 °F /  17.6 °C 53.7 °F /  12.1 °C 30.11in /  1019.5hPa WNW 3.6mph /  5.8km/h 10mph /  16.1km/h 70% 0.00in /  0mm 1053 W/m2
13:19 64.7 °F /  18.2 °C 54.3 °F /  12.4 °C 30.11in /  1019.5hPa WNW 2.7mph /  4.3km/h 6mph /  9.7km/h 69% 0.00in /  0mm 1053 W/m2
13:24 65.1 °F /  18.4 °C 54.1 °F /  12.3 °C 30.11in /  1019.5hPa WSW 4mph /  6.4km/h 9mph /  14.5km/h 67.4% 0.00in /  0mm 1020 W/m2
13:29 64.6 °F /  18.1 °C 53 °F /  11.7 °C 30.11in /  1019.5hPa WSW 3.4mph /  5.5km/h 10mph /  16.1km/h 66.2% 0.00in /  0mm 719 W/m2
13:34 64.1 °F /  17.8 °C 53.4 °F /  11.9 °C 30.11in /  1019.5hPa WNW 4.6mph /  7.4km/h 9mph /  14.5km/h 68.4% 0.00in /  0mm 1032 W/m2
13:39 63.7 °F /  17.6 °C 53.2 °F /  11.8 °C 30.11in /  1019.5hPa West 4mph /  6.4km/h 8mph /  12.9km/h 69% 0.00in /  0mm 1032 W/m2
13:44 63.2 °F /  17.3 °C 53.5 °F /  11.9 °C 30.11in /  1019.5hPa WNW 4.8mph /  7.7km/h 8mph /  12.9km/h 70.4% 0.00in /  0mm 251 W/m2
13:49 63.7 °F /  17.6 °C 53.7 °F /  12.1 °C 30.12in /  1019.9hPa NW 3.3mph /  5.3km/h 7mph /  11.3km/h 70% 0.00in /  0mm 993 W/m2
13:54 63.9 °F /  17.7 °C 53.4 °F /  11.9 °C 30.12in /  1019.9hPa WNW 4.8mph /  7.7km/h 8mph /  12.9km/h 68.6% 0.00in /  0mm 232 W/m2
13:59 63.5 °F /  17.5 °C 53.2 °F /  11.8 °C 30.12in /  1019.9hPa West 1.7mph /  2.7km/h 6mph /  9.7km/h 69% 0.00in /  0mm 350 W/m2
14:04 64.5 °F /  18.1 °C 54 °F /  12.2 °C 30.12in /  1019.9hPa West 2.6mph /  4.2km/h 6mph /  9.7km/h 69% 0.00in /  0mm 598 W/m2
14:09 64 °F /  17.8 °C 53.6 °F /  12 °C 30.12in /  1019.9hPa West 4.1mph /  6.6km/h 8mph /  12.9km/h 69% 0.00in /  0mm 1030 W/m2
14:14 64.7 °F /  18.2 °C 54.2 °F /  12.3 °C 30.12in /  1019.9hPa WSW 3.9mph /  6.3km/h 8mph /  12.9km/h 68.8% 0.00in /  0mm 1011 W/m2
14:19 64.3 °F /  17.9 °C 53.4 °F /  11.9 °C 30.12in /  1019.9hPa SW 4.1mph /  6.6km/h 9mph /  14.5km/h 67.8% 0.00in /  0mm 318 W/m2
14:24 64.2 °F /  17.9 °C 53.8 °F /  12.1 °C 30.12in /  1019.9hPa SSW 2.1mph /  3.4km/h 8mph /  12.9km/h 69.2% 0.00in /  0mm 896 W/m2
14:29 65 °F /  18.3 °C 53.6 °F /  12 °C 30.12in /  1019.9hPa West 5.4mph /  8.7km/h 9mph /  14.5km/h 66.6% 0.00in /  0mm 923 W/m2
14:34 64.7 °F /  18.2 °C 53 °F /  11.7 °C 30.12in /  1019.9hPa WSW 3.3mph /  5.3km/h 8mph /  12.9km/h 66% 0.00in /  0mm 260 W/m2
14:39 64.8 °F /  18.2 °C 53.8 °F /  12.1 °C 30.12in /  1019.9hPa West 4.1mph /  6.6km/h 7mph /  11.3km/h 67.6% 0.00in /  0mm 888 W/m2
14:44 65.3 °F /  18.5 °C 53.7 °F /  12.1 °C 30.12in /  1019.9hPa West 3.6mph /  5.8km/h 9mph /  14.5km/h 66% 0.00in /  0mm 1023 W/m2
14:49 65.6 °F /  18.7 °C 53.6 °F /  12 °C 30.12in /  1019.9hPa WSW 2.8mph /  4.5km/h 8mph /  12.9km/h 65.4% 0.00in /  0mm 1028 W/m2
14:54 66 °F /  18.9 °C 54.1 °F /  12.3 °C 30.12in /  1019.9hPa West 5.3mph /  8.5km/h 9mph /  14.5km/h 65.4% 0.00in /  0mm 930 W/m2
14:59 66.2 °F /  19 °C 53.4 °F /  11.9 °C 30.12in /  1019.9hPa SW 4.5mph /  7.2km/h 9mph /  14.5km/h 63.4% 0.00in /  0mm 401 W/m2
15:04 66.2 °F /  19 °C 53.3 °F /  11.8 °C 30.12in /  1019.9hPa WSW 2.5mph /  4km/h 8mph /  12.9km/h 63.2% 0.00in /  0mm 524 W/m2
15:09 65.6 °F /  18.7 °C 52.6 °F /  11.4 °C 30.12in /  1019.9hPa SW 3.5mph /  5.6km/h 10mph /  16.1km/h 62.8% 0.00in /  0mm 970 W/m2
15:14 67 °F /  19.4 °C 53.4 °F /  11.9 °C 30.12in /  1019.9hPa SW 1.2mph /  1.9km/h 5mph /  8km/h 61.6% 0.00in /  0mm 928 W/m2
15:19 67 °F /  19.4 °C 53.5 °F /  11.9 °C 30.12in /  1019.9hPa WSW 3.3mph /  5.3km/h 8mph /  12.9km/h 61.8% 0.00in /  0mm 923 W/m2
15:24 66.1 °F /  18.9 °C 52.9 °F /  11.6 °C 30.12in /  1019.9hPa WSW 5.7mph /  9.2km/h 10mph /  16.1km/h 62.4% 0.00in /  0mm 338 W/m2
15:29 65.7 °F /  18.7 °C 52.8 °F /  11.6 °C 30.12in /  1019.9hPa WSW 3.2mph /  5.1km/h 7mph /  11.3km/h 63.2% 0.00in /  0mm 939 W/m2
15:34 65.8 °F /  18.8 °C 53.1 °F /  11.7 °C 30.11in /  1019.5hPa West 4mph /  6.4km/h 9mph /  14.5km/h 63.5% 0.00in /  0mm 322 W/m2
15:39 65.9 °F /  18.8 °C 53.5 °F /  11.9 °C 30.11in /  1019.5hPa WNW 4mph /  6.4km/h 9mph /  14.5km/h 64.4% 0.00in /  0mm 958 W/m2
15:44 65.9 °F /  18.8 °C 53.9 °F /  12.2 °C 30.11in /  1019.5hPa WNW 3.2mph /  5.1km/h 8mph /  12.9km/h 65% 0.00in /  0mm 649 W/m2
15:49 66 °F /  18.9 °C 53.7 °F /  12.1 °C 30.11in /  1019.5hPa West 4.1mph /  6.6km/h 9mph /  14.5km/h 64.4% 0.00in /  0mm 390 W/m2
15:54 65.7 °F /  18.7 °C 53.8 °F /  12.1 °C 30.11in /  1019.5hPa West 4.3mph /  6.9km/h 8mph /  12.9km/h 65.4% 0.00in /  0mm 309 W/m2
15:59 65.6 °F /  18.7 °C 53.9 °F /  12.2 °C 30.11in /  1019.5hPa West 3.4mph /  5.5km/h 7mph /  11.3km/h 66% 0.00in /  0mm 343 W/m2
16:04 66.2 °F /  19 °C 53.9 °F /  12.2 °C 30.11in /  1019.5hPa WSW 4.1mph /  6.6km/h 7mph /  11.3km/h 64.6% 0.00in /  0mm 355 W/m2
16:09 65.6 °F /  18.7 °C 52.9 °F /  11.6 °C 30.11in /  1019.5hPa West 4.5mph /  7.2km/h 9mph /  14.5km/h 63.6% 0.00in /  0mm 237 W/m2
16:14 65.2 °F /  18.4 °C 53 °F /  11.7 °C 30.11in /  1019.5hPa West 4.5mph /  7.2km/h 9mph /  14.5km/h 64.6% 0.00in /  0mm 487 W/m2
16:19 65.8 °F /  18.8 °C 53.4 °F /  11.9 °C 30.11in /  1019.5hPa WSW 3.6mph /  5.8km/h 7mph /  11.3km/h 64.2% 0.00in /  0mm 819 W/m2
16:24 66.2 °F /  19 °C 53.5 °F /  11.9 °C 30.11in /  1019.5hPa West 5.4mph /  8.7km/h 10mph /  16.1km/h 63.8% 0.00in /  0mm 269 W/m2
16:34 64.9 °F /  18.3 °C 53.1 °F /  11.7 °C 30.11in /  1019.5hPa WNW 4.4mph /  7.1km/h 9mph /  14.5km/h 65.6% 0.00in /  0mm 290 W/m2
16:39 64.9 °F /  18.3 °C 53.2 °F /  11.8 °C 30.11in /  1019.5hPa WNW 4.7mph /  7.6km/h 9mph /  14.5km/h 66% 0.00in /  0mm 234 W/m2
16:44 64.8 °F /  18.2 °C 53.6 °F /  12 °C 30.11in /  1019.5hPa WNW 6.2mph /  10km/h 8mph /  12.9km/h 67% 0.00in /  0mm 684 W/m2
16:49 65.1 °F /  18.4 °C 53.9 °F /  12.2 °C 30.11in /  1019.5hPa West 4.8mph /  7.7km/h 9mph /  14.5km/h 67% 0.00in /  0mm 663 W/m2
16:54 65.5 °F /  18.6 °C 53.9 °F /  12.2 °C 30.11in /  1019.5hPa WSW 5.2mph /  8.4km/h 10mph /  16.1km/h 66.3% 0.00in /  0mm 336 W/m2
16:59 65.3 °F /  18.5 °C 53.7 °F /  12.1 °C 30.11in /  1019.5hPa West 3.6mph /  5.8km/h 10mph /  16.1km/h 66.2% 0.00in /  0mm 253 W/m2
17:04 65.7 °F /  18.7 °C 54.4 °F /  12.4 °C 30.11in /  1019.5hPa WNW 6.1mph /  9.8km/h 10mph /  16.1km/h 67% 0.00in /  0mm 686 W/m2
17:09 66.1 °F /  18.9 °C 54.8 °F /  12.7 °C 30.11in /  1019.5hPa WNW 4.8mph /  7.7km/h 8mph /  12.9km/h 67% 0.00in /  0mm 686 W/m2
17:14 66.4 °F /  19.1 °C 55 °F /  12.8 °C 30.11in /  1019.5hPa WSW 4.4mph /  7.1km/h 7mph /  11.3km/h 67% 0.00in /  0mm 636 W/m2
17:19 67 °F /  19.4 °C 55.3 °F /  12.9 °C 30.11in /  1019.5hPa West 4.6mph /  7.4km/h 7mph /  11.3km/h 66.2% 0.00in /  0mm 615 W/m2
17:24 67 °F /  19.4 °C 54.9 °F /  12.7 °C 30.11in /  1019.5hPa West 4mph /  6.4km/h 8mph /  12.9km/h 65.2% 0.00in /  0mm 547 W/m2
17:29 66.2 °F /  19 °C 54.8 °F /  12.7 °C 30.12in /  1019.9hPa West 4.1mph /  6.6km/h 7mph /  11.3km/h 66.8% 0.00in /  0mm 135 W/m2
17:34 65.5 °F /  18.6 °C 54.9 °F /  12.7 °C 30.12in /  1019.9hPa WSW 4.1mph /  6.6km/h 7mph /  11.3km/h 68.6% 0.00in /  0mm 294 W/m2
17:39 65.4 °F /  18.6 °C 54.9 °F /  12.7 °C 30.12in /  1019.9hPa West 4mph /  6.4km/h 9mph /  14.5km/h 69% 0.00in /  0mm 239 W/m2
17:44 65.2 °F /  18.4 °C 55.1 °F /  12.8 °C 30.12in /  1019.9hPa WNW 5.5mph /  8.9km/h 9mph /  14.5km/h 70% 0.00in /  0mm 218 W/m2
17:49 64.7 °F /  18.2 °C 54.7 °F /  12.6 °C 30.12in /  1019.9hPa WNW 5.6mph /  9km/h 11mph /  17.7km/h 70.2% 0.00in /  0mm 190 W/m2
17:54 64.8 °F /  18.2 °C 55.2 °F /  12.9 °C 30.11in /  1019.5hPa WNW 4.8mph /  7.7km/h 11mph /  17.7km/h 71% 0.00in /  0mm 527 W/m2
17:59 65.1 °F /  18.4 °C 54.9 °F /  12.7 °C 30.11in /  1019.5hPa NW 7.5mph /  12.1km/h 12mph /  19.3km/h 69.6% 0.00in /  0mm 519 W/m2
18:04 65.1 °F /  18.4 °C 55 °F /  12.8 °C 30.11in /  1019.5hPa WNW 7mph /  11.3km/h 12mph /  19.3km/h 70% 0.00in /  0mm 462 W/m2
18:09 65.5 °F /  18.6 °C 55.4 °F /  13 °C 30.11in /  1019.5hPa WNW 4.9mph /  7.9km/h 9mph /  14.5km/h 70.2% 0.00in /  0mm 436 W/m2
18:14 65.1 °F /  18.4 °C 55.1 °F /  12.8 °C 30.12in /  1019.9hPa WNW 5.6mph /  9km/h 11mph /  17.7km/h 70.2% 0.00in /  0mm 257 W/m2
18:19 65 °F /  18.3 °C 55.2 °F /  12.9 °C 30.12in /  1019.9hPa WNW 6.6mph /  10.6km/h 11mph /  17.7km/h 70.6% 0.00in /  0mm 533 W/m2
18:24 65 °F /  18.3 °C 54.9 °F /  12.7 °C 30.12in /  1019.9hPa WNW 5.1mph /  8.2km/h 13mph /  20.9km/h 70% 0.00in /  0mm 506 W/m2
18:29 64.8 °F /  18.2 °C 54.5 °F /  12.5 °C 30.12in /  1019.9hPa WNW 6mph /  9.7km/h 13mph /  20.9km/h 69.6% 0.00in /  0mm 415 W/m2
18:34 64.7 °F /  18.2 °C 54.6 °F /  12.6 °C 30.12in /  1019.9hPa WNW 4.8mph /  7.7km/h 9mph /  14.5km/h 70% 0.00in /  0mm 387 W/m2
18:39 64.8 °F /  18.2 °C 54.7 °F /  12.6 °C 30.12in /  1019.9hPa West 4.9mph /  7.9km/h 11mph /  17.7km/h 70% 0.00in /  0mm 355 W/m2
18:44 64.3 °F /  17.9 °C 54.4 °F /  12.4 °C 30.12in /  1019.9hPa WNW 8mph /  12.9km/h 11mph /  17.7km/h 70.2% 0.00in /  0mm 301 W/m2
18:49 63.7 °F /  17.6 °C 54.1 °F /  12.3 °C 30.12in /  1019.9hPa WNW 5.3mph /  8.5km/h 10mph /  16.1km/h 70.8% 0.00in /  0mm 244 W/m2
18:54 63.3 °F /  17.4 °C 53.5 °F /  11.9 °C 30.12in /  1019.9hPa NW 6.8mph /  10.9km/h 13mph /  20.9km/h 70.4% 0.00in /  0mm 267 W/m2
18:59 62.7 °F /  17.1 °C 52.9 °F /  11.6 °C 30.12in /  1019.9hPa NW 8.2mph /  13.2km/h 14mph /  22.5km/h 70.2% 0.00in /  0mm 234 W/m2
19:04 62.1 °F /  16.7 °C 52.8 °F /  11.6 °C 30.12in /  1019.9hPa West 6mph /  9.7km/h 10mph /  16.1km/h 71.6% 0.00in /  0mm 63 W/m2
19:09 61.5 °F /  16.4 °C 52.4 °F /  11.3 °C 30.12in /  1019.9hPa West 6mph /  9.7km/h 11mph /  17.7km/h 72% 0.00in /  0mm 91 W/m2
19:14 61.1 °F /  16.2 °C 52.5 °F /  11.4 °C 30.12in /  1019.9hPa WNW 7.1mph /  11.4km/h 12mph /  19.3km/h 73% 0.00in /  0mm 70 W/m2
19:19 60.6 °F /  15.9 °C 52 °F /  11.1 °C 30.12in /  1019.9hPa WNW 5.7mph /  9.2km/h 10mph /  16.1km/h 73% 0.00in /  0mm 69 W/m2
19:24 60.5 °F /  15.8 °C 51.9 °F /  11.1 °C 30.13in /  1020.2hPa West 5mph /  8km/h 10mph /  16.1km/h 73% 0.00in /  0mm 90 W/m2
19:29 60.4 °F /  15.8 °C 51.8 °F /  11 °C 30.13in /  1020.2hPa West 3.2mph /  5.1km/h 8mph /  12.9km/h 73% 0.00in /  0mm 95 W/m2
19:34 60.3 °F /  15.7 °C 51.2 °F /  10.7 °C 30.13in /  1020.2hPa WNW 5mph /  8km/h 10mph /  16.1km/h 71.6% 0.00in /  0mm 88 W/m2
19:39 60.1 °F /  15.6 °C 50.7 °F /  10.4 °C 30.13in /  1020.2hPa WNW 3.2mph /  5.1km/h 6mph /  9.7km/h 71% 0.00in /  0mm 56 W/m2
19:44 59.9 °F /  15.5 °C 50.5 °F /  10.3 °C 30.13in /  1020.2hPa West 3.6mph /  5.8km/h 9mph /  14.5km/h 71% 0.00in /  0mm 58 W/m2
19:49 59.7 °F /  15.4 °C 50.7 °F /  10.4 °C 30.13in /  1020.2hPa West 4mph /  6.4km/h 7mph /  11.3km/h 72% 0.00in /  0mm 56 W/m2
19:54 59.5 °F /  15.3 °C 50.5 °F /  10.3 °C 30.13in /  1020.2hPa West 2.4mph /  3.9km/h 4mph /  6.4km/h 72% 0.00in /  0mm 46 W/m2
19:59 59.5 °F /  15.3 °C 50.9 °F /  10.5 °C 30.13in /  1020.2hPa West 2mph /  3.2km/h 4mph /  6.4km/h 73% 0.00in /  0mm 39 W/m2
20:04 59.4 °F /  15.2 °C 50.5 °F /  10.3 °C 30.13in /  1020.2hPa West 2.8mph /  4.5km/h 5mph /  8km/h 72.2% 0.00in /  0mm 37 W/m2
20:09 59.2 °F /  15.1 °C 50.2 °F /  10.1 °C 30.13in /  1020.2hPa West 2.9mph /  4.7km/h 5mph /  8km/h 71.8% 0.00in /  0mm 40 W/m2
20:14 58.9 °F /  14.9 °C 49.4 °F /  9.7 °C 30.14in /  1020.5hPa WNW 3.6mph /  5.8km/h 6mph /  9.7km/h 70.6% 0.00in /  0mm 39 W/m2
20:19 58.8 °F /  14.9 °C 48.5 °F /  9.2 °C 30.14in /  1020.5hPa West 3.8mph /  6.1km/h 5mph /  8km/h 68.6% 0.00in /  0mm 28 W/m2
20:24 58.6 °F /  14.8 °C 48.3 °F /  9.1 °C 30.14in /  1020.5hPa West 2.9mph /  4.7km/h 5mph /  8km/h 68.2% 0.00in /  0mm 25 W/m2
20:29 58.5 °F /  14.7 °C 48.1 °F /  8.9 °C 30.14in /  1020.5hPa West 2.9mph /  4.7km/h 6mph /  9.7km/h 68% 0.00in /  0mm 25 W/m2
20:34 58.5 °F /  14.7 °C 48 °F /  8.9 °C 30.15in /  1020.9hPa West 1.5mph /  2.4km/h 5mph /  8km/h 68% 0.00in /  0mm 19 W/m2
20:39 58.3 °F /  14.6 °C 48 °F /  8.9 °C 30.15in /  1020.9hPa West 2mph /  3.2km/h 3mph /  4.8km/h 68.4% 0.00in /  0mm 16 W/m2
20:44 58.1 °F /  14.5 °C 47.9 °F /  8.8 °C 30.15in /  1020.9hPa West 2.1mph /  3.4km/h 4mph /  6.4km/h 68.6% 0.00in /  0mm 9 W/m2
20:49 57.9 °F /  14.4 °C 47.7 °F /  8.7 °C 30.15in /  1020.9hPa West 1.9mph /  3.1km/h 4mph /  6.4km/h 68.6% 0.00in /  0mm 5 W/m2
20:54 57.8 °F /  14.3 °C 47.7 °F /  8.7 °C 30.15in /  1020.9hPa WNW 3.6mph /  5.8km/h 6mph /  9.7km/h 69% 0.00in /  0mm 0 W/m2
20:59 57.6 °F /  14.2 °C 47.7 °F /  8.7 °C 30.16in /  1021.2hPa WNW 2.8mph /  4.5km/h 5mph /  8km/h 69.6% 0.00in /  0mm 0 W/m2
21:04 57.5 °F /  14.2 °C 47.8 °F /  8.8 °C 30.16in /  1021.2hPa WNW 3.3mph /  5.3km/h 7mph /  11.3km/h 70% 0.00in /  0mm 0 W/m2
21:09 57.4 °F /  14.1 °C 47.9 °F /  8.8 °C 30.16in /  1021.2hPa WNW 1.9mph /  3.1km/h 5mph /  8km/h 70.8% 0.00in /  0mm 0 W/m2
21:14 57.2 °F /  14 °C 47.9 °F /  8.8 °C 30.16in /  1021.2hPa WNW 2.4mph /  3.9km/h 5mph /  8km/h 71.2% 0.00in /  0mm 0 W/m2
21:19 57 °F /  13.9 °C 48 °F /  8.9 °C 30.16in /  1021.2hPa WNW 1mph /  1.6km/h 4mph /  6.4km/h 72% 0.00in /  0mm 0 W/m2
21:24 56.9 °F /  13.8 °C 48.1 °F /  8.9 °C 30.16in /  1021.2hPa WNW 0.9mph /  1.4km/h 3mph /  4.8km/h 72.6% 0.00in /  0mm 0 W/m2
21:29 56.8 °F /  13.8 °C 48.2 °F /  9 °C 30.15in /  1020.9hPa WNW 2.2mph /  3.5km/h 4mph /  6.4km/h 73% 0.00in /  0mm 0 W/m2
21:34 56.7 °F /  13.7 °C 48.2 °F /  9 °C 30.15in /  1020.9hPa WNW 0.9mph /  1.4km/h 4mph /  6.4km/h 73.6% 0.00in /  0mm 0 W/m2
21:39 56.7 °F /  13.7 °C 48.4 °F /  9.1 °C 30.15in /  1020.9hPa WNW 0.5mph /  0.8km/h 2mph /  3.2km/h 74% 0.00in /  0mm 0 W/m2
21:44 56.5 °F /  13.6 °C 48.4 °F /  9.1 °C 30.14in /  1020.5hPa Calm   2mph /  3.2km/h 74% 0.00in /  0mm 0 W/m2
21:49 56.5 °F /  13.6 °C 48.4 °F /  9.1 °C 30.14in /  1020.5hPa WNW 0.5mph /  0.8km/h 2mph /  3.2km/h 74% 0.00in /  0mm 0 W/m2
21:54 56.4 °F /  13.6 °C 48.5 °F /  9.2 °C 30.14in /  1020.5hPa WNW 1mph /  1.6km/h 3mph /  4.8km/h 74.6% 0.00in /  0mm 0 W/m2
21:59 56.1 °F /  13.4 °C 48.5 °F /  9.2 °C 30.14in /  1020.5hPa WNW 2mph /  3.2km/h 3mph /  4.8km/h 75.2% 0.00in /  0mm 0 W/m2
22:04 55.9 °F /  13.3 °C 48.6 °F /  9.2 °C 30.14in /  1020.5hPa WNW 1.7mph /  2.7km/h 3mph /  4.8km/h 76% 0.00in /  0mm 0 W/m2
22:09 55.8 °F /  13.2 °C 48.4 °F /  9.1 °C 30.14in /  1020.5hPa WNW 0.8mph /  1.3km/h 4mph /  6.4km/h 76% 0.00in /  0mm 0 W/m2
22:14 55.8 °F /  13.2 °C 48.4 °F /  9.1 °C 30.14in /  1020.5hPa WNW 1.3mph /  2.1km/h 4mph /  6.4km/h 76% 0.00in /  0mm 0 W/m2
22:19 55.8 °F /  13.2 °C 48.6 °F /  9.2 °C 30.14in /  1020.5hPa WNW 0.8mph /  1.3km/h 2mph /  3.2km/h 76.8% 0.00in /  0mm 0 W/m2
22:24 55.7 °F /  13.2 °C 48.6 °F /  9.2 °C 30.14in /  1020.5hPa WNW 0.9mph /  1.4km/h 2mph /  3.2km/h 77% 0.00in /  0mm 0 W/m2
22:29 55.6 °F /  13.1 °C 48.6 °F /  9.2 °C 30.14in /  1020.5hPa WNW 1mph /  1.6km/h 3mph /  4.8km/h 77% 0.00in /  0mm 0 W/m2
22:34 55.6 °F /  13.1 °C 48.6 °F /  9.2 °C 30.14in /  1020.5hPa Calm   2mph /  3.2km/h 77% 0.00in /  0mm 0 W/m2
22:39 55.6 °F /  13.1 °C 48.6 °F /  9.2 °C 30.14in /  1020.5hPa WNW 0.8mph /  1.3km/h 2mph /  3.2km/h 77% 0.00in /  0mm 0 W/m2
22:44 55.6 °F /  13.1 °C 48.6 °F /  9.2 °C 30.15in /  1020.9hPa WNW 1.3mph /  2.1km/h 2mph /  3.2km/h 77% 0.00in /  0mm 0 W/m2
22:49 55.6 °F /  13.1 °C 48.6 °F /  9.2 °C 30.15in /  1020.9hPa WNW 1.2mph /  1.9km/h 3mph /  4.8km/h 77% 0.00in /  0mm 0 W/m2
22:54 55.6 °F /  13.1 °C 48.6 °F /  9.2 °C 30.15in /  1020.9hPa WNW 0.5mph /  0.8km/h 3mph /  4.8km/h 77% 0.00in /  0mm 0 W/m2
22:59 55.4 °F /  13 °C 48.4 °F /  9.1 °C 30.14in /  1020.5hPa WNW 0.9mph /  1.4km/h 3mph /  4.8km/h 77% 0.00in /  0mm 0 W/m2
23:04 55.2 °F /  12.9 °C 48.2 °F /  9 °C 30.15in /  1020.9hPa WNW 0.5mph /  0.8km/h 3mph /  4.8km/h 77% 0.00in /  0mm 0 W/m2
23:09 55.2 °F /  12.9 °C 48.2 °F /  9 °C 30.14in /  1020.5hPa WNW 0.2mph /  0.3km/h 1mph /  1.6km/h 77% 0.00in /  0mm 0 W/m2
23:14 55.2 °F /  12.9 °C 48.2 °F /  9 °C 30.15in /  1020.9hPa Calm   1mph /  1.6km/h 77% 0.00in /  0mm 0 W/m2
23:19 55.4 °F /  13 °C 48.5 °F /  9.2 °C 30.15in /  1020.9hPa WNW 0.2mph /  0.3km/h 2mph /  3.2km/h 77.2% 0.00in /  0mm 0 W/m2
23:24 55.4 °F /  13 °C 48.7 °F /  9.3 °C 30.15in /  1020.9hPa WNW 0.4mph /  0.6km/h 2mph /  3.2km/h 78% 0.00in /  0mm 0 W/m2
23:34 55.1 °F /  12.8 °C 48.5 °F /  9.2 °C 30.14in /  1020.5hPa WNW 0.4mph /  0.6km/h 2mph /  3.2km/h 78% 0.00in /  0mm 0 W/m2
23:39 54.9 °F /  12.7 °C 48.2 °F /  9 °C 30.14in /  1020.5hPa WNW 2.4mph /  3.9km/h 4mph /  6.4km/h 78% 0.00in /  0mm 0 W/m2
23:43 54.8 °F /  12.7 °C 48.1 °F /  8.9 °C 30.14in /  1020.5hPa WNW 0.5mph /  0.8km/h 2mph /  3.2km/h 78% 0.00in /  0mm 0 W/m2
23:49 54.7 °F /  12.6 °C 48 °F /  8.9 °C 30.14in /  1020.5hPa WNW 0.2mph /  0.3km/h 2mph /  3.2km/h 78% 0.00in /  0mm 0 W/m2
23:54 54.7 °F /  12.6 °C 48 °F /  8.9 °C 30.14in /  1020.5hPa WNW 1.3mph /  2.1km/h 2mph /  3.2km/h 78% 0.00in /  0mm 0 W/m2
23:59 54.5 °F /  12.5 °C 47.8 °F /  8.8 °C 30.14in /  1020.5hPa WNW 1.4mph /  2.3km/h 2mph /  3.2km/h 78% 0.00in /  0mm 0 W/m2
Bath Spa Weather
Compliments of Weather Underground - 2 mb